sensor_id;sensor_type;location;lat;lon;timestamp;pressure;altitude;pressure_sealevel;temperature;humidity
2841;BME280;53423;49.224;12.074;2022-09-03T00:00:16;97596.59;;;15.67;51.55
2841;BME280;53423;49.224;12.074;2022-09-03T00:02:48;97597.81;;;15.71;51.57
2841;BME280;53423;49.224;12.074;2022-09-03T00:05:22;97595.16;;;15.65;51.95
2841;BME280;53423;49.224;12.074;2022-09-03T00:07:58;97592.53;;;15.71;51.71
2841;BME280;53423;49.224;12.074;2022-09-03T00:10:33;97590.03;;;15.57;52.35
2841;BME280;53423;49.224;12.074;2022-09-03T00:13:06;97590.72;;;15.38;53.07
2841;BME280;53423;49.224;12.074;2022-09-03T00:15:38;97584.63;;;15.37;53.51
2841;BME280;53423;49.224;12.074;2022-09-03T00:18:09;97589.66;;;15.26;53.54
2841;BME280;53423;49.224;12.074;2022-09-03T00:20:41;97583.59;;;15.32;53.54
2841;BME280;53423;49.224;12.074;2022-09-03T00:23:15;97590.06;;;15.23;53.98
2841;BME280;53423;49.224;12.074;2022-09-03T00:25:49;97592.09;;;15.27;53.75
2841;BME280;53423;49.224;12.074;2022-09-03T00:28:24;97592.91;;;15.21;53.76
2841;BME280;53423;49.224;12.074;2022-09-03T00:31:03;97592.09;;;15.27;53.99
2841;BME280;53423;49.224;12.074;2022-09-03T00:33:34;97594.47;;;15.16;53.94
2841;BME280;53423;49.224;12.074;2022-09-03T00:36:11;97588.44;;;15.22;54.21
2841;BME280;53423;49.224;12.074;2022-09-03T00:38:41;97584.78;;;15.23;54.25
2841;BME280;53423;49.224;12.074;2022-09-03T00:41:18;97577.41;;;15.12;54.50
2841;BME280;53423;49.224;12.074;2022-09-03T00:44:04;97578.78;;;15.01;54.73
2841;BME280;53423;49.224;12.074;2022-09-03T00:46:38;97584.59;;;14.90;55.27
2841;BME280;53423;49.224;12.074;2022-09-03T00:49:23;97581.59;;;15.00;54.90
2841;BME280;53423;49.224;12.074;2022-09-03T00:52:01;97587.94;;;15.05;54.99
2841;BME280;53423;49.224;12.074;2022-09-03T00:54:42;97589.72;;;14.98;54.80
2841;BME280;53423;49.224;12.074;2022-09-03T00:57:23;97587.66;;;14.93;55.19
2841;BME280;53423;49.224;12.074;2022-09-03T01:00:03;97596.81;;;14.98;54.86
2841;BME280;53423;49.224;12.074;2022-09-03T01:02:44;97600.25;;;14.91;55.11
2841;BME280;53423;49.224;12.074;2022-09-03T01:05:26;97598.31;;;14.79;55.68
2841;BME280;53423;49.224;12.074;2022-09-03T01:08:07;97591.56;;;14.70;56.16
2841;BME280;53423;49.224;12.074;2022-09-03T01:10:45;97599.38;;;14.57;56.02
2841;BME280;53423;49.224;12.074;2022-09-03T01:13:21;97604.78;;;14.70;55.75
2841;BME280;53423;49.224;12.074;2022-09-03T01:16:02;97603.16;;;14.75;55.62
2841;BME280;53423;49.224;12.074;2022-09-03T01:18:38;97595.63;;;14.72;55.75
2841;BME280;53423;49.224;12.074;2022-09-03T01:21:27;97594.63;;;14.73;55.16
2841;BME280;53423;49.224;12.074;2022-09-03T01:24:12;97611.03;;;14.69;55.33
2841;BME280;53423;49.224;12.074;2022-09-03T01:27:01;97607.56;;;14.68;55.43
2841;BME280;53423;49.224;12.074;2022-09-03T01:29:38;97602.13;;;14.70;55.59
2841;BME280;53423;49.224;12.074;2022-09-03T01:32:13;97603.66;;;14.58;55.85
2841;BME280;53423;49.224;12.074;2022-09-03T01:34:53;97607.91;;;14.59;56.65
2841;BME280;53423;49.224;12.074;2022-09-03T01:37:33;97603.13;;;14.69;56.68
2841;BME280;53423;49.224;12.074;2022-09-03T01:40:09;97594.34;;;14.62;57.59
2841;BME280;53423;49.224;12.074;2022-09-03T01:42:49;97595.97;;;14.63;58.20
2841;BME280;53423;49.224;12.074;2022-09-03T01:45:36;97595.75;;;14.37;58.32
2841;BME280;53423;49.224;12.074;2022-09-03T01:48:31;97591.38;;;14.23;59.22
2841;BME280;53423;49.224;12.074;2022-09-03T01:51:07;97592.94;;;14.17;59.19
2841;BME280;53423;49.224;12.074;2022-09-03T01:54:01;97596.63;;;14.23;58.79
2841;BME280;53423;49.224;12.074;2022-09-03T01:56:49;97591.78;;;14.05;59.58
2841;BME280;53423;49.224;12.074;2022-09-03T01:59:26;97596.03;;;13.85;60.52
2841;BME280;53423;49.224;12.074;2022-09-03T02:02:00;97594.94;;;14.15;59.28
2841;BME280;53423;49.224;12.074;2022-09-03T02:04:29;97596.69;;;14.08;59.78
2841;BME280;53423;49.224;12.074;2022-09-03T02:06:59;97596.13;;;14.13;58.74
2841;BME280;53423;49.224;12.074;2022-09-03T02:09:28;97602.28;;;13.99;59.10
2841;BME280;53423;49.224;12.074;2022-09-03T02:12:11;97601.69;;;14.03;59.14
2841;BME280;53423;49.224;12.074;2022-09-03T02:14:41;97597.31;;;14.10;59.12
2841;BME280;53423;49.224;12.074;2022-09-03T02:17:11;97595.25;;;14.06;58.74
2841;BME280;53423;49.224;12.074;2022-09-03T02:19:39;97594.47;;;14.12;58.62
2841;BME280;53423;49.224;12.074;2022-09-03T02:22:07;97586.31;;;14.07;58.88
2841;BME280;53423;49.224;12.074;2022-09-03T02:24:36;97593.41;;;14.06;58.78
2841;BME280;53423;49.224;12.074;2022-09-03T02:27:04;97591.22;;;14.10;59.17
2841;BME280;53423;49.224;12.074;2022-09-03T02:29:32;97584.72;;;14.06;59.55
2841;BME280;53423;49.224;12.074;2022-09-03T02:32:00;97592.22;;;14.09;59.36
2841;BME280;53423;49.224;12.074;2022-09-03T02:34:29;97596.03;;;14.06;59.37
2841;BME280;53423;49.224;12.074;2022-09-03T02:36:57;97593.78;;;14.03;59.13
2841;BME280;53423;49.224;12.074;2022-09-03T02:39:25;97590.97;;;14.05;59.02
2841;BME280;53423;49.224;12.074;2022-09-03T02:41:56;97580.63;;;14.03;59.32
2841;BME280;53423;49.224;12.074;2022-09-03T02:44:28;97584.06;;;14.04;58.75
2841;BME280;53423;49.224;12.074;2022-09-03T02:46:58;97578.81;;;14.04;58.55
2841;BME280;53423;49.224;12.074;2022-09-03T02:49:29;97592.44;;;14.07;58.57
2841;BME280;53423;49.224;12.074;2022-09-03T02:51:59;97589.34;;;14.04;58.80
2841;BME280;53423;49.224;12.074;2022-09-03T02:54:32;97582.25;;;14.04;58.05
2841;BME280;53423;49.224;12.074;2022-09-03T02:57:02;97585.88;;;14.03;58.49
2841;BME280;53423;49.224;12.074;2022-09-03T02:59:30;97586.19;;;13.94;59.20
2841;BME280;53423;49.224;12.074;2022-09-03T03:01:58;97585.00;;;13.96;58.50
2841;BME280;53423;49.224;12.074;2022-09-03T03:04:27;97583.56;;;13.94;58.38
2841;BME280;53423;49.224;12.074;2022-09-03T03:06:57;97590.41;;;13.88;59.34
2841;BME280;53423;49.224;12.074;2022-09-03T03:09:25;97586.78;;;13.89;58.41
2841;BME280;53423;49.224;12.074;2022-09-03T03:11:53;97586.19;;;13.94;59.01
2841;BME280;53423;49.224;12.074;2022-09-03T03:14:21;97586.00;;;13.95;58.30
2841;BME280;53423;49.224;12.074;2022-09-03T03:16:50;97580.81;;;14.02;58.50
2841;BME280;53423;49.224;12.074;2022-09-03T03:19:18;97590.25;;;13.96;58.56
2841;BME280;53423;49.224;12.074;2022-09-03T03:21:46;97577.59;;;13.85;58.45
2841;BME280;53423;49.224;12.074;2022-09-03T03:24:15;97579.66;;;13.90;59.04
2841;BME280;53423;49.224;12.074;2022-09-03T03:26:42;97585.50;;;13.85;59.46
2841;BME280;53423;49.224;12.074;2022-09-03T03:29:14;97596.53;;;13.74;59.57
2841;BME280;53423;49.224;12.074;2022-09-03T03:31:43;97594.44;;;13.84;59.01
2841;BME280;53423;49.224;12.074;2022-09-03T03:34:11;97601.81;;;13.95;58.38
2841;BME280;53423;49.224;12.074;2022-09-03T03:36:39;97599.06;;;13.82;58.85
2841;BME280;53423;49.224;12.074;2022-09-03T03:39:07;97602.06;;;13.79;59.05
2841;BME280;53423;49.224;12.074;2022-09-03T03:41:38;97600.56;;;13.91;58.87
2841;BME280;53423;49.224;12.074;2022-09-03T03:44:07;97594.88;;;13.88;58.59
2841;BME280;53423;49.224;12.074;2022-09-03T03:46:38;97591.78;;;13.84;59.24
2841;BME280;53423;49.224;12.074;2022-09-03T03:49:07;97585.75;;;13.90;58.25
2841;BME280;53423;49.224;12.074;2022-09-03T03:51:36;97588.66;;;13.95;58.45
2841;BME280;53423;49.224;12.074;2022-09-03T03:54:04;97587.94;;;13.87;58.47
2841;BME280;53423;49.224;12.074;2022-09-03T03:56:33;97583.13;;;13.69;58.88
2841;BME280;53423;49.224;12.074;2022-09-03T03:59:03;97590.44;;;13.73;59.56
2841;BME280;53423;49.224;12.074;2022-09-03T04:01:30;97590.25;;;13.75;59.39
2841;BME280;53423;49.224;12.074;2022-09-03T04:03:59;97587.63;;;13.75;59.25
2841;BME280;53423;49.224;12.074;2022-09-03T04:06:27;97589.25;;;13.76;59.19
2841;BME280;53423;49.224;12.074;2022-09-03T04:08:55;97581.91;;;13.71;59.53
2841;BME280;53423;49.224;12.074;2022-09-03T04:11:24;97584.22;;;13.60;60.17
2841;BME280;53423;49.224;12.074;2022-09-03T04:13:52;97591.28;;;13.59;59.69
2841;BME280;53423;49.224;12.074;2022-09-03T04:16:23;97602.13;;;13.50;60.14
2841;BME280;53423;49.224;12.074;2022-09-03T04:18:52;97602.31;;;13.48;61.17
2841;BME280;53423;49.224;12.074;2022-09-03T04:21:21;97597.69;;;13.50;61.46
2841;BME280;53423;49.224;12.074;2022-09-03T04:23:53;97591.56;;;13.64;60.72
2841;BME280;53423;49.224;12.074;2022-09-03T04:26:23;97596.59;;;13.45;60.90
2841;BME280;53423;49.224;12.074;2022-09-03T04:28:51;97590.66;;;13.57;60.76
2841;BME280;53423;49.224;12.074;2022-09-03T04:31:21;97595.94;;;13.57;61.22
2841;BME280;53423;49.224;12.074;2022-09-03T04:33:49;97592.56;;;13.63;60.76
2841;BME280;53423;49.224;12.074;2022-09-03T04:36:19;97598.22;;;13.46;61.57
2841;BME280;53423;49.224;12.074;2022-09-03T04:38:49;97597.97;;;13.55;61.39
2841;BME280;53423;49.224;12.074;2022-09-03T04:41:19;97597.84;;;13.63;61.18
2841;BME280;53423;49.224;12.074;2022-09-03T04:43:49;97596.03;;;13.64;61.25
2841;BME280;53423;49.224;12.074;2022-09-03T04:46:17;97600.16;;;13.73;60.13
2841;BME280;53423;49.224;12.074;2022-09-03T04:48:48;97599.00;;;13.76;59.85
2841;BME280;53423;49.224;12.074;2022-09-03T04:51:19;97601.06;;;13.80;60.65
2841;BME280;53423;49.224;12.074;2022-09-03T04:53:52;97601.06;;;13.80;59.90
2841;BME280;53423;49.224;12.074;2022-09-03T04:56:24;97609.78;;;13.81;59.74
2841;BME280;53423;49.224;12.074;2022-09-03T04:58:54;97601.50;;;13.84;60.25
2841;BME280;53423;49.224;12.074;2022-09-03T05:01:25;97602.78;;;13.88;59.72
2841;BME280;53423;49.224;12.074;2022-09-03T05:03:55;97601.81;;;13.95;59.27
2841;BME280;53423;49.224;12.074;2022-09-03T05:06:24;97609.97;;;14.00;58.92
2841;BME280;53423;49.224;12.074;2022-09-03T05:08:52;97599.13;;;13.89;59.61
2841;BME280;53423;49.224;12.074;2022-09-03T05:11:21;97604.41;;;14.10;58.60
2841;BME280;53423;49.224;12.074;2022-09-03T05:13:51;97609.00;;;14.22;58.39
2841;BME280;53423;49.224;12.074;2022-09-03T05:16:20;97612.44;;;14.23;58.69
2841;BME280;53423;49.224;12.074;2022-09-03T05:18:51;97611.28;;;14.25;57.92
2841;BME280;53423;49.224;12.074;2022-09-03T05:21:23;97623.28;;;14.13;57.54
2841;BME280;53423;49.224;12.074;2022-09-03T05:23:51;97617.13;;;14.06;58.32
2841;BME280;53423;49.224;12.074;2022-09-03T05:26:23;97622.56;;;14.19;58.28
2841;BME280;53423;49.224;12.074;2022-09-03T05:28:53;97619.34;;;14.24;57.14
2841;BME280;53423;49.224;12.074;2022-09-03T05:31:23;97619.66;;;14.14;57.51
2841;BME280;53423;49.224;12.074;2022-09-03T05:33:55;97619.63;;;14.29;57.60
2841;BME280;53423;49.224;12.074;2022-09-03T05:36:27;97618.53;;;14.23;57.59
2841;BME280;53423;49.224;12.074;2022-09-03T05:38:55;97614.84;;;14.39;56.95
2841;BME280;53423;49.224;12.074;2022-09-03T05:41:25;97618.94;;;14.41;56.92
2841;BME280;53423;49.224;12.074;2022-09-03T05:43:53;97623.78;;;14.38;56.92
2841;BME280;53423;49.224;12.074;2022-09-03T05:46:27;97627.22;;;14.38;57.22
2841;BME280;53423;49.224;12.074;2022-09-03T05:48:58;97624.56;;;14.38;56.60
2841;BME280;53423;49.224;12.074;2022-09-03T05:51:27;97625.59;;;14.37;57.85
2841;BME280;53423;49.224;12.074;2022-09-03T05:53:56;97627.59;;;14.35;58.04
2841;BME280;53423;49.224;12.074;2022-09-03T05:56:28;97625.78;;;14.36;58.60
2841;BME280;53423;49.224;12.074;2022-09-03T05:58:57;97620.91;;;14.18;58.67
2841;BME280;53423;49.224;12.074;2022-09-03T06:01:29;97613.91;;;14.25;59.15
2841;BME280;53423;49.224;12.074;2022-09-03T06:03:58;97616.59;;;14.32;58.39
2841;BME280;53423;49.224;12.074;2022-09-03T06:06:30;97626.53;;;14.30;59.05
2841;BME280;53423;49.224;12.074;2022-09-03T06:09:00;97615.81;;;14.17;59.57
2841;BME280;53423;49.224;12.074;2022-09-03T06:11:30;97619.09;;;14.40;58.72
2841;BME280;53423;49.224;12.074;2022-09-03T06:13:59;97617.81;;;14.29;59.23
2841;BME280;53423;49.224;12.074;2022-09-03T06:16:28;97614.50;;;14.48;58.39
2841;BME280;53423;49.224;12.074;2022-09-03T06:18:57;97608.97;;;14.64;58.40
2841;BME280;53423;49.224;12.074;2022-09-03T06:21:25;97617.69;;;15.20;57.34
2841;BME280;53423;49.224;12.074;2022-09-03T06:23:57;97605.44;;;16.27;53.44
2841;BME280;53423;49.224;12.074;2022-09-03T06:26:26;97618.75;;;16.79;52.06
2841;BME280;53423;49.224;12.074;2022-09-03T06:28:55;97616.22;;;17.29;50.16
2841;BME280;53423;49.224;12.074;2022-09-03T06:31:25;97622.75;;;17.84;49.64
2841;BME280;53423;49.224;12.074;2022-09-03T06:33:53;97617.47;;;18.22;47.41
2841;BME280;53423;49.224;12.074;2022-09-03T06:36:26;97611.13;;;18.54;47.01
2841;BME280;53423;49.224;12.074;2022-09-03T06:38:56;97603.22;;;18.47;45.90
2841;BME280;53423;49.224;12.074;2022-09-03T06:41:25;97608.91;;;18.76;45.62
2841;BME280;53423;49.224;12.074;2022-09-03T06:43:57;97613.94;;;19.26;45.51
2841;BME280;53423;49.224;12.074;2022-09-03T06:46:29;97613.31;;;19.67;43.94
2841;BME280;53423;49.224;12.074;2022-09-03T06:48:57;97610.31;;;19.21;44.00
2841;BME280;53423;49.224;12.074;2022-09-03T06:51:27;97620.34;;;19.61;43.31
2841;BME280;53423;49.224;12.074;2022-09-03T06:54:01;97619.66;;;19.84;42.92
2841;BME280;53423;49.224;12.074;2022-09-03T06:56:29;97619.44;;;19.86;42.63
2841;BME280;53423;49.224;12.074;2022-09-03T06:59:06;97637.47;;;19.05;44.65
2841;BME280;53423;49.224;12.074;2022-09-03T07:01:35;97629.94;;;18.52;45.52
2841;BME280;53423;49.224;12.074;2022-09-03T07:04:11;97629.28;;;18.26;46.47
2841;BME280;53423;49.224;12.074;2022-09-03T07:06:40;97623.03;;;18.45;46.93
2841;BME280;53423;49.224;12.074;2022-09-03T07:09:11;97631.44;;;18.67;45.56
2841;BME280;53423;49.224;12.074;2022-09-03T07:11:40;97637.78;;;18.41;46.92
2841;BME280;53423;49.224;12.074;2022-09-03T07:14:14;97640.50;;;18.21;46.68
2841;BME280;53423;49.224;12.074;2022-09-03T07:16:42;97640.81;;;18.38;46.68
2841;BME280;53423;49.224;12.074;2022-09-03T07:19:11;97626.91;;;18.49;46.84
2841;BME280;53423;49.224;12.074;2022-09-03T07:21:40;97630.22;;;18.44;46.33
2841;BME280;53423;49.224;12.074;2022-09-03T07:24:16;97621.53;;;18.55;46.64
2841;BME280;53423;49.224;12.074;2022-09-03T07:26:45;97621.22;;;18.95;45.79
2841;BME280;53423;49.224;12.074;2022-09-03T07:29:14;97618.66;;;19.24;44.63
2841;BME280;53423;49.224;12.074;2022-09-03T07:31:46;97620.78;;;20.06;43.04
2841;BME280;53423;49.224;12.074;2022-09-03T07:34:17;97612.94;;;20.41;41.76
2841;BME280;53423;49.224;12.074;2022-09-03T07:36:47;97616.50;;;20.87;41.82
2841;BME280;53423;49.224;12.074;2022-09-03T07:39:18;97616.25;;;20.89;38.89
2841;BME280;53423;49.224;12.074;2022-09-03T07:41:46;97622.19;;;21.03;37.94
2841;BME280;53423;49.224;12.074;2022-09-03T07:44:16;97629.16;;;21.38;38.78
2841;BME280;53423;49.224;12.074;2022-09-03T07:46:46;97629.44;;;21.65;38.00
2841;BME280;53423;49.224;12.074;2022-09-03T07:49:17;97628.44;;;22.05;37.93
2841;BME280;53423;49.224;12.074;2022-09-03T07:51:52;97614.34;;;22.38;38.06
2841;BME280;53423;49.224;12.074;2022-09-03T07:54:21;97616.38;;;22.48;38.27
2841;BME280;53423;49.224;12.074;2022-09-03T07:56:52;97619.91;;;23.14;35.98
2841;BME280;53423;49.224;12.074;2022-09-03T07:59:21;97614.31;;;23.54;35.26
2841;BME280;53423;49.224;12.074;2022-09-03T08:02:27;97619.47;;;23.39;35.18
2841;BME280;53423;49.224;12.074;2022-09-03T08:04:55;97622.00;;;23.89;33.87
2841;BME280;53423;49.224;12.074;2022-09-03T08:07:22;97625.41;;;23.84;34.39
2841;BME280;53423;49.224;12.074;2022-09-03T08:09:53;97631.06;;;23.45;33.92
2841;BME280;53423;49.224;12.074;2022-09-03T08:12:21;97628.56;;;24.24;33.23
2841;BME280;53423;49.224;12.074;2022-09-03T08:14:49;97633.22;;;24.07;33.80
2841;BME280;53423;49.224;12.074;2022-09-03T08:17:17;97632.16;;;24.08;33.74
2841;BME280;53423;49.224;12.074;2022-09-03T08:19:45;97635.44;;;23.94;34.51
2841;BME280;53423;49.224;12.074;2022-09-03T08:22:13;97628.88;;;24.28;33.99
2841;BME280;53423;49.224;12.074;2022-09-03T08:24:41;97632.09;;;24.30;31.93
2841;BME280;53423;49.224;12.074;2022-09-03T08:27:10;97634.13;;;23.96;33.07
2841;BME280;53423;49.224;12.074;2022-09-03T08:29:38;97638.06;;;23.89;34.07
2841;BME280;53423;49.224;12.074;2022-09-03T08:32:06;97630.25;;;24.89;32.51
2841;BME280;53423;49.224;12.074;2022-09-03T08:34:33;97625.69;;;24.84;31.91
2841;BME280;53423;49.224;12.074;2022-09-03T08:37:01;97627.25;;;25.17;31.74
2841;BME280;53423;49.224;12.074;2022-09-03T08:39:30;97628.88;;;24.54;34.66
2841;BME280;53423;49.224;12.074;2022-09-03T08:45:05;97620.75;;;24.44;33.92
2841;BME280;53423;49.224;12.074;2022-09-03T08:47:37;97617.28;;;25.49;31.60
2841;BME280;53423;49.224;12.074;2022-09-03T08:50:15;97614.47;;;25.76;30.74
2841;BME280;53423;49.224;12.074;2022-09-03T08:52:46;97618.41;;;26.35;29.84
2841;BME280;53423;49.224;12.074;2022-09-03T08:55:19;97608.56;;;26.75;28.59
2841;BME280;53423;49.224;12.074;2022-09-03T08:57:53;97605.03;;;26.80;29.88
2841;BME280;53423;49.224;12.074;2022-09-03T09:00:28;97613.00;;;26.20;29.03
2841;BME280;53423;49.224;12.074;2022-09-03T09:03:16;97602.88;;;27.07;27.69
2841;BME280;53423;49.224;12.074;2022-09-03T09:05:53;97603.97;;;27.01;28.95
2841;BME280;53423;49.224;12.074;2022-09-03T09:08:32;97599.91;;;27.04;28.81
2841;BME280;53423;49.224;12.074;2022-09-03T09:11:07;97599.63;;;27.15;29.06
2841;BME280;53423;49.224;12.074;2022-09-03T09:13:42;97597.19;;;27.24;29.76
2841;BME280;53423;49.224;12.074;2022-09-03T09:16:22;97598.25;;;27.48;27.95
2841;BME280;53423;49.224;12.074;2022-09-03T09:19:09;97595.00;;;27.46;28.12
2841;BME280;53423;49.224;12.074;2022-09-03T09:21:41;97595.22;;;27.64;29.07
2841;BME280;53423;49.224;12.074;2022-09-03T09:24:18;97584.28;;;28.04;27.36
2841;BME280;53423;49.224;12.074;2022-09-03T09:26:51;97592.56;;;27.59;28.62
2841;BME280;53423;49.224;12.074;2022-09-03T09:29:21;97590.78;;;26.95;28.58
2841;BME280;53423;49.224;12.074;2022-09-03T09:31:52;97579.47;;;27.08;29.35
2841;BME280;53423;49.224;12.074;2022-09-03T09:34:20;97575.94;;;27.12;27.56
2841;BME280;53423;49.224;12.074;2022-09-03T09:36:50;97582.16;;;27.08;28.66
2841;BME280;53423;49.224;12.074;2022-09-03T09:39:19;97571.44;;;27.81;27.98
2841;BME280;53423;49.224;12.074;2022-09-03T09:41:57;97571.78;;;27.70;27.38
2841;BME280;53423;49.224;12.074;2022-09-03T09:44:26;97562.81;;;27.79;28.95
2841;BME280;53423;49.224;12.074;2022-09-03T09:47:05;97563.34;;;27.91;28.19
2841;BME280;53423;49.224;12.074;2022-09-03T09:49:35;97557.91;;;27.96;28.57
2841;BME280;53423;49.224;12.074;2022-09-03T09:52:07;97559.63;;;27.67;28.66
2841;BME280;53423;49.224;12.074;2022-09-03T09:54:38;97552.34;;;28.27;28.12
2841;BME280;53423;49.224;12.074;2022-09-03T10:04:22;97547.69;;;28.37;26.36
2841;BME280;53423;49.224;12.074;2022-09-03T10:10:43;97538.75;;;28.75;27.24
2841;BME280;53423;49.224;12.074;2022-09-03T10:16:26;97530.91;;;28.79;26.80
2841;BME280;53423;49.224;12.074;2022-09-03T10:26:31;97516.31;;;29.08;25.73
2841;BME280;53423;49.224;12.074;2022-09-03T10:29:01;97522.34;;;28.95;26.33
2841;BME280;53423;49.224;12.074;2022-09-03T10:38:19;97516.34;;;28.41;27.24
2841;BME280;53423;49.224;12.074;2022-09-03T10:41:00;97521.34;;;28.91;27.59
2841;BME280;53423;49.224;12.074;2022-09-03T10:43:59;97515.38;;;27.83;28.29
2841;BME280;53423;49.224;12.074;2022-09-03T10:46:39;97513.41;;;28.04;28.22
2841;BME280;53423;49.224;12.074;2022-09-03T10:49:30;97515.19;;;29.14;25.79
2841;BME280;53423;49.224;12.074;2022-09-03T10:52:08;97506.66;;;29.50;26.37
2841;BME280;53423;49.224;12.074;2022-09-03T10:54:47;97504.09;;;28.87;27.16
2841;BME280;53423;49.224;12.074;2022-09-03T10:57:30;97507.38;;;28.17;27.68
2841;BME280;53423;49.224;12.074;2022-09-03T11:03:58;97503.69;;;27.49;30.21
2841;BME280;53423;49.224;12.074;2022-09-03T11:06:40;97508.34;;;27.34;31.57
2841;BME280;53423;49.224;12.074;2022-09-03T11:19:49;97495.66;;;28.94;28.31
2841;BME280;53423;49.224;12.074;2022-09-03T11:22:21;97503.00;;;28.88;26.85
2841;BME280;53423;49.224;12.074;2022-09-03T11:24:53;97500.22;;;29.64;26.77
2841;BME280;53423;49.224;12.074;2022-09-03T11:27:34;97502.91;;;29.22;27.27
2841;BME280;53423;49.224;12.074;2022-09-03T11:30:05;97508.84;;;29.48;26.59
2841;BME280;53423;49.224;12.074;2022-09-03T11:32:44;97496.06;;;29.53;26.25
2841;BME280;53423;49.224;12.074;2022-09-03T11:35:26;97499.56;;;28.54;28.38
2841;BME280;53423;49.224;12.074;2022-09-03T11:37:58;97498.06;;;27.99;29.57
2841;BME280;53423;49.224;12.074;2022-09-03T11:40:37;97506.06;;;27.61;29.87
2841;BME280;53423;49.224;12.074;2022-09-03T11:43:10;97504.94;;;28.21;28.33
2841;BME280;53423;49.224;12.074;2022-09-03T11:45:41;97500.94;;;29.04;27.21
2841;BME280;53423;49.224;12.074;2022-09-03T11:48:18;97491.19;;;28.56;27.86
2841;BME280;53423;49.224;12.074;2022-09-03T11:50:54;97501.81;;;28.03;27.20
2841;BME280;53423;49.224;12.074;2022-09-03T11:53:24;97504.56;;;27.35;29.30
2841;BME280;53423;49.224;12.074;2022-09-03T11:55:59;97487.84;;;28.30;27.24
2841;BME280;53423;49.224;12.074;2022-09-03T11:58:30;97496.47;;;28.32;27.85
2841;BME280;53423;49.224;12.074;2022-09-03T12:01:01;97493.59;;;28.19;28.13
2841;BME280;53423;49.224;12.074;2022-09-03T12:03:40;97492.56;;;28.15;28.50
2841;BME280;53423;49.224;12.074;2022-09-03T12:09:46;97493.84;;;28.22;27.35
2841;BME280;53423;49.224;12.074;2022-09-03T12:12:36;97498.63;;;27.96;28.82
2841;BME280;53423;49.224;12.074;2022-09-03T12:15:13;97494.75;;;27.59;27.94
2841;BME280;53423;49.224;12.074;2022-09-03T12:17:51;97493.81;;;27.25;29.78
2841;BME280;53423;49.224;12.074;2022-09-03T12:20:34;97490.31;;;27.29;31.38
2841;BME280;53423;49.224;12.074;2022-09-03T12:23:02;97487.06;;;27.22;29.23
2841;BME280;53423;49.224;12.074;2022-09-03T12:25:31;97486.66;;;28.41;28.93
2841;BME280;53423;49.224;12.074;2022-09-03T12:28:01;97481.56;;;28.97;27.15
2841;BME280;53423;49.224;12.074;2022-09-03T12:30:30;97485.59;;;28.76;28.51
2841;BME280;53423;49.224;12.074;2022-09-03T12:33:06;97471.75;;;28.82;29.02
2841;BME280;53423;49.224;12.074;2022-09-03T12:35:36;97478.22;;;28.58;27.69
2841;BME280;53423;49.224;12.074;2022-09-03T12:38:25;97474.09;;;27.88;30.22
2841;BME280;53423;49.224;12.074;2022-09-03T12:40:56;97477.03;;;27.48;30.42
2841;BME280;53423;49.224;12.074;2022-09-03T12:43:49;97475.59;;;26.91;32.89
2841;BME280;53423;49.224;12.074;2022-09-03T12:46:22;97485.59;;;26.61;32.51
2841;BME280;53423;49.224;12.074;2022-09-03T12:49:00;97470.28;;;26.16;33.11
2841;BME280;53423;49.224;12.074;2022-09-03T12:51:51;97478.84;;;25.98;33.48
2841;BME280;53423;49.224;12.074;2022-09-03T12:54:32;97472.34;;;25.79;34.15
2841;BME280;53423;49.224;12.074;2022-09-03T12:57:02;97460.00;;;25.78;32.96
2841;BME280;53423;49.224;12.074;2022-09-03T12:59:33;97464.78;;;25.56;33.75
2841;BME280;53423;49.224;12.074;2022-09-03T13:02:11;97455.44;;;25.73;33.34
2841;BME280;53423;49.224;12.074;2022-09-03T13:04:41;97468.25;;;25.41;35.09
2841;BME280;53423;49.224;12.074;2022-09-03T13:07:12;97460.31;;;25.10;35.72
2841;BME280;53423;49.224;12.074;2022-09-03T13:09:42;97466.16;;;24.97;35.01
2841;BME280;53423;49.224;12.074;2022-09-03T13:12:28;97468.31;;;24.58;36.05
2841;BME280;53423;49.224;12.074;2022-09-03T13:15:06;97465.09;;;24.56;35.54
2841;BME280;53423;49.224;12.074;2022-09-03T13:17:50;97459.66;;;24.83;36.01
2841;BME280;53423;49.224;12.074;2022-09-03T13:20:30;97458.63;;;24.94;35.52
2841;BME280;53423;49.224;12.074;2022-09-03T13:23:19;97459.09;;;24.81;35.11
2841;BME280;53423;49.224;12.074;2022-09-03T13:25:56;97455.63;;;24.85;35.21
2841;BME280;53423;49.224;12.074;2022-09-03T13:28:45;97466.84;;;24.77;35.43
2841;BME280;53423;49.224;12.074;2022-09-03T13:31:26;97464.97;;;24.73;35.99
2841;BME280;53423;49.224;12.074;2022-09-03T13:33:58;97464.16;;;24.72;36.94
2841;BME280;53423;49.224;12.074;2022-09-03T13:36:33;97464.91;;;24.68;37.03
2841;BME280;53423;49.224;12.074;2022-09-03T13:39:08;97464.50;;;24.86;37.03
2841;BME280;53423;49.224;12.074;2022-09-03T13:41:47;97459.44;;;24.52;37.18
2841;BME280;53423;49.224;12.074;2022-09-03T13:44:22;97466.06;;;24.45;38.02
2841;BME280;53423;49.224;12.074;2022-09-03T13:47:01;97472.75;;;24.37;38.28
2841;BME280;53423;49.224;12.074;2022-09-03T13:49:36;97479.66;;;24.33;37.63
2841;BME280;53423;49.224;12.074;2022-09-03T13:52:26;97486.09;;;24.01;38.30
2841;BME280;53423;49.224;12.074;2022-09-03T13:55:02;97484.56;;;23.83;39.28
2841;BME280;53423;49.224;12.074;2022-09-03T13:57:37;97487.38;;;23.72;39.66
2841;BME280;53423;49.224;12.074;2022-09-03T14:00:11;97490.53;;;23.42;40.37
2841;BME280;53423;49.224;12.074;2022-09-03T14:02:50;97486.28;;;23.24;41.14
2841;BME280;53423;49.224;12.074;2022-09-03T14:05:33;97491.16;;;23.27;42.02
2841;BME280;53423;49.224;12.074;2022-09-03T14:08:39;97492.47;;;22.87;44.00
2841;BME280;53423;49.224;12.074;2022-09-03T14:11:34;97500.88;;;22.57;46.41
2841;BME280;53423;49.224;12.074;2022-09-03T14:14:13;97510.56;;;22.30;47.31
2841;BME280;53423;49.224;12.074;2022-09-03T14:16:55;97513.16;;;22.25;48.61
2841;BME280;53423;49.224;12.074;2022-09-03T14:19:33;97514.59;;;22.16;50.40
2841;BME280;53423;49.224;12.074;2022-09-03T14:22:06;97508.94;;;22.12;50.15